sensor_id;sensor_type;location;lat;lon;timestamp;temperature;humidity
790;DHT22;378;48.844;9.156;2023-07-13T00:00:44;19.70;99.90
790;DHT22;378;48.844;9.156;2023-07-13T00:03:11;19.70;99.90
790;DHT22;378;48.844;9.156;2023-07-13T00:05:38;19.70;99.90
790;DHT22;378;48.844;9.156;2023-07-13T00:08:05;19.60;99.90
790;DHT22;378;48.844;9.156;2023-07-13T00:10:39;19.60;99.90
790;DHT22;378;48.844;9.156;2023-07-13T00:13:06;19.50;99.90
790;DHT22;378;48.844;9.156;2023-07-13T00:15:33;19.50;99.90
790;DHT22;378;48.844;9.156;2023-07-13T00:18:01;19.40;99.90
790;DHT22;378;48.844;9.156;2023-07-13T00:20:28;19.40;99.90
790;DHT22;378;48.844;9.156;2023-07-13T00:22:54;19.40;99.90
790;DHT22;378;48.844;9.156;2023-07-13T00:25:22;19.40;99.90
790;DHT22;378;48.844;9.156;2023-07-13T00:27:51;19.40;99.90
790;DHT22;378;48.844;9.156;2023-07-13T00:30:18;19.30;99.90
790;DHT22;378;48.844;9.156;2023-07-13T00:32:45;19.20;99.90
790;DHT22;378;48.844;9.156;2023-07-13T00:35:14;19.20;99.90
790;DHT22;378;48.844;9.156;2023-07-13T00:37:41;19.10;99.90
790;DHT22;378;48.844;9.156;2023-07-13T00:40:10;19.10;99.90
790;DHT22;378;48.844;9.156;2023-07-13T00:42:37;19.00;99.90
790;DHT22;378;48.844;9.156;2023-07-13T00:47:50;19.00;99.90
790;DHT22;378;48.844;9.156;2023-07-13T00:50:18;18.90;99.90
790;DHT22;378;48.844;9.156;2023-07-13T00:52:49;18.90;99.90
790;DHT22;378;48.844;9.156;2023-07-13T00:55:17;18.80;99.90
790;DHT22;378;48.844;9.156;2023-07-13T00:57:44;18.80;99.90
790;DHT22;378;48.844;9.156;2023-07-13T01:00:13;18.80;99.90
790;DHT22;378;48.844;9.156;2023-07-13T01:02:45;18.80;99.90
790;DHT22;378;48.844;9.156;2023-07-13T01:05:16;18.80;99.90
790;DHT22;378;48.844;9.156;2023-07-13T01:07:44;18.80;99.90
790;DHT22;378;48.844;9.156;2023-07-13T01:10:12;18.80;99.90
790;DHT22;378;48.844;9.156;2023-07-13T01:12:39;18.70;99.90
790;DHT22;378;48.844;9.156;2023-07-13T01:15:35;18.70;99.90
790;DHT22;378;48.844;9.156;2023-07-13T01:18:03;18.70;99.90
790;DHT22;378;48.844;9.156;2023-07-13T01:20:31;18.60;99.90
790;DHT22;378;48.844;9.156;2023-07-13T01:23:03;18.60;99.90
790;DHT22;378;48.844;9.156;2023-07-13T01:25:32;18.60;99.90
790;DHT22;378;48.844;9.156;2023-07-13T01:27:59;18.60;99.90
790;DHT22;378;48.844;9.156;2023-07-13T01:30:25;18.60;99.90
790;DHT22;378;48.844;9.156;2023-07-13T01:32:52;18.50;99.90
790;DHT22;378;48.844;9.156;2023-07-13T01:35:19;18.50;99.90
790;DHT22;378;48.844;9.156;2023-07-13T01:37:46;18.40;99.90
790;DHT22;378;48.844;9.156;2023-07-13T01:40:14;18.40;99.90
790;DHT22;378;48.844;9.156;2023-07-13T01:42:41;18.30;99.90
790;DHT22;378;48.844;9.156;2023-07-13T01:45:08;18.30;99.90
790;DHT22;378;48.844;9.156;2023-07-13T01:47:35;18.20;99.90
790;DHT22;378;48.844;9.156;2023-07-13T01:50:02;18.10;99.90
790;DHT22;378;48.844;9.156;2023-07-13T01:52:29;18.10;99.90
790;DHT22;378;48.844;9.156;2023-07-13T01:54:56;18.10;99.90
790;DHT22;378;48.844;9.156;2023-07-13T01:57:24;18.10;99.90
790;DHT22;378;48.844;9.156;2023-07-13T01:59:51;18.10;99.90
790;DHT22;378;48.844;9.156;2023-07-13T02:02:17;18.10;99.90
790;DHT22;378;48.844;9.156;2023-07-13T02:04:45;18.10;99.90
790;DHT22;378;48.844;9.156;2023-07-13T02:07:11;18.10;99.90
790;DHT22;378;48.844;9.156;2023-07-13T02:09:38;18.10;99.90
790;DHT22;378;48.844;9.156;2023-07-13T02:12:06;18.10;99.90
790;DHT22;378;48.844;9.156;2023-07-13T02:14:34;18.10;99.90
790;DHT22;378;48.844;9.156;2023-07-13T02:17:01;18.10;99.90
790;DHT22;378;48.844;9.156;2023-07-13T02:19:28;18.10;99.90
790;DHT22;378;48.844;9.156;2023-07-13T02:21:55;18.10;99.90
790;DHT22;378;48.844;9.156;2023-07-13T02:24:22;18.10;99.90
790;DHT22;378;48.844;9.156;2023-07-13T02:26:49;18.10;99.90
790;DHT22;378;48.844;9.156;2023-07-13T02:29:15;18.00;99.90
790;DHT22;378;48.844;9.156;2023-07-13T02:31:44;18.00;99.90
790;DHT22;378;48.844;9.156;2023-07-13T02:34:10;17.90;99.90
790;DHT22;378;48.844;9.156;2023-07-13T02:36:37;17.90;99.90
790;DHT22;378;48.844;9.156;2023-07-13T02:39:05;17.90;99.90
790;DHT22;378;48.844;9.156;2023-07-13T02:41:32;17.90;99.90
790;DHT22;378;48.844;9.156;2023-07-13T02:43:59;17.80;99.90
790;DHT22;378;48.844;9.156;2023-07-13T02:46:29;17.70;99.90
790;DHT22;378;48.844;9.156;2023-07-13T02:48:57;17.70;99.90
790;DHT22;378;48.844;9.156;2023-07-13T02:51:24;17.60;99.90
790;DHT22;378;48.844;9.156;2023-07-13T02:53:51;17.50;99.90
790;DHT22;378;48.844;9.156;2023-07-13T02:56:22;17.50;99.90
790;DHT22;378;48.844;9.156;2023-07-13T02:58:50;17.50;99.90
790;DHT22;378;48.844;9.156;2023-07-13T03:01:17;17.50;99.90
790;DHT22;378;48.844;9.156;2023-07-13T03:03:44;17.40;99.90
790;DHT22;378;48.844;9.156;2023-07-13T03:06:13;17.40;99.90
790;DHT22;378;48.844;9.156;2023-07-13T03:08:40;17.40;99.90
790;DHT22;378;48.844;9.156;2023-07-13T03:11:10;17.30;99.90
790;DHT22;378;48.844;9.156;2023-07-13T03:13:37;17.30;99.90
790;DHT22;378;48.844;9.156;2023-07-13T03:16:04;17.30;99.90
790;DHT22;378;48.844;9.156;2023-07-13T03:18:31;17.30;99.90
790;DHT22;378;48.844;9.156;2023-07-13T03:20:58;17.30;99.90
790;DHT22;378;48.844;9.156;2023-07-13T03:23:27;17.30;99.90
790;DHT22;378;48.844;9.156;2023-07-13T03:26:01;17.30;99.90
790;DHT22;378;48.844;9.156;2023-07-13T03:28:28;17.40;99.90
790;DHT22;378;48.844;9.156;2023-07-13T03:31:00;17.40;99.90
790;DHT22;378;48.844;9.156;2023-07-13T03:33:26;17.50;99.90
790;DHT22;378;48.844;9.156;2023-07-13T03:35:53;17.60;99.90
790;DHT22;378;48.844;9.156;2023-07-13T03:38:20;17.70;99.90
790;DHT22;378;48.844;9.156;2023-07-13T03:40:48;17.80;99.90
790;DHT22;378;48.844;9.156;2023-07-13T03:43:15;17.80;99.90
790;DHT22;378;48.844;9.156;2023-07-13T03:45:42;18.00;99.90
790;DHT22;378;48.844;9.156;2023-07-13T03:48:09;18.00;99.90
790;DHT22;378;48.844;9.156;2023-07-13T03:50:36;18.00;99.90
790;DHT22;378;48.844;9.156;2023-07-13T03:53:04;18.20;99.90
790;DHT22;378;48.844;9.156;2023-07-13T03:55:31;18.20;99.90
790;DHT22;378;48.844;9.156;2023-07-13T03:58:24;18.30;99.90
790;DHT22;378;48.844;9.156;2023-07-13T04:00:48;18.30;99.90
790;DHT22;378;48.844;9.156;2023-07-13T04:03:15;18.30;99.90
790;DHT22;378;48.844;9.156;2023-07-13T04:05:43;18.30;99.90
790;DHT22;378;48.844;9.156;2023-07-13T04:08:10;18.30;99.90
790;DHT22;378;48.844;9.156;2023-07-13T04:10:36;18.30;99.90
790;DHT22;378;48.844;9.156;2023-07-13T04:13:04;18.30;99.90
790;DHT22;378;48.844;9.156;2023-07-13T04:15:31;18.20;99.90
790;DHT22;378;48.844;9.156;2023-07-13T04:18:00;18.20;99.90
790;DHT22;378;48.844;9.156;2023-07-13T04:20:28;18.30;99.90
790;DHT22;378;48.844;9.156;2023-07-13T04:22:55;18.30;99.90
790;DHT22;378;48.844;9.156;2023-07-13T04:25:23;18.30;99.90
790;DHT22;378;48.844;9.156;2023-07-13T04:27:49;18.40;99.90
790;DHT22;378;48.844;9.156;2023-07-13T04:30:17;18.50;99.90
790;DHT22;378;48.844;9.156;2023-07-13T04:32:44;18.50;99.90
790;DHT22;378;48.844;9.156;2023-07-13T04:35:12;18.50;99.90
790;DHT22;378;48.844;9.156;2023-07-13T04:37:40;18.50;99.90
790;DHT22;378;48.844;9.156;2023-07-13T04:40:08;18.40;99.90
790;DHT22;378;48.844;9.156;2023-07-13T04:42:37;18.40;99.90
790;DHT22;378;48.844;9.156;2023-07-13T04:45:05;18.30;99.90
790;DHT22;378;48.844;9.156;2023-07-13T04:47:32;18.20;99.90
790;DHT22;378;48.844;9.156;2023-07-13T04:49:59;18.20;99.90
790;DHT22;378;48.844;9.156;2023-07-13T04:52:27;18.20;99.90
790;DHT22;378;48.844;9.156;2023-07-13T04:54:54;18.00;99.90
790;DHT22;378;48.844;9.156;2023-07-13T04:57:20;17.90;99.90
790;DHT22;378;48.844;9.156;2023-07-13T04:59:47;17.90;99.90
790;DHT22;378;48.844;9.156;2023-07-13T05:02:14;17.90;99.90
790;DHT22;378;48.844;9.156;2023-07-13T05:04:41;18.00;99.90
790;DHT22;378;48.844;9.156;2023-07-13T05:07:08;18.00;99.90
790;DHT22;378;48.844;9.156;2023-07-13T05:09:36;18.20;99.90
790;DHT22;378;48.844;9.156;2023-07-13T05:12:03;18.50;99.90
790;DHT22;378;48.844;9.156;2023-07-13T05:14:30;18.70;99.90
790;DHT22;378;48.844;9.156;2023-07-13T05:16:57;19.10;99.90
790;DHT22;378;48.844;9.156;2023-07-13T05:19:24;19.40;99.90
790;DHT22;378;48.844;9.156;2023-07-13T05:21:51;19.50;99.90
790;DHT22;378;48.844;9.156;2023-07-13T05:24:17;19.50;99.90
790;DHT22;378;48.844;9.156;2023-07-13T05:26:46;19.60;99.90
790;DHT22;378;48.844;9.156;2023-07-13T05:29:13;19.40;99.90
790;DHT22;378;48.844;9.156;2023-07-13T05:31:40;19.40;99.90
790;DHT22;378;48.844;9.156;2023-07-13T05:34:06;19.40;99.90
790;DHT22;378;48.844;9.156;2023-07-13T05:36:34;19.30;99.90
790;DHT22;378;48.844;9.156;2023-07-13T05:39:00;19.30;99.90
790;DHT22;378;48.844;9.156;2023-07-13T05:41:29;19.30;99.90
790;DHT22;378;48.844;9.156;2023-07-13T05:43:57;19.30;99.90
790;DHT22;378;48.844;9.156;2023-07-13T05:46:24;19.30;99.90
790;DHT22;378;48.844;9.156;2023-07-13T05:48:51;19.20;99.90
790;DHT22;378;48.844;9.156;2023-07-13T05:51:17;19.10;99.90
790;DHT22;378;48.844;9.156;2023-07-13T05:53:44;19.10;99.90
790;DHT22;378;48.844;9.156;2023-07-13T05:56:11;19.10;99.90
790;DHT22;378;48.844;9.156;2023-07-13T05:58:38;19.10;99.90
790;DHT22;378;48.844;9.156;2023-07-13T06:01:09;19.10;99.90
790;DHT22;378;48.844;9.156;2023-07-13T06:03:36;19.20;99.90
790;DHT22;378;48.844;9.156;2023-07-13T06:06:04;19.30;99.90
790;DHT22;378;48.844;9.156;2023-07-13T06:08:31;19.80;99.90
790;DHT22;378;48.844;9.156;2023-07-13T06:11:03;20.40;99.90
790;DHT22;378;48.844;9.156;2023-07-13T06:13:29;20.60;99.90
790;DHT22;378;48.844;9.156;2023-07-13T06:15:56;20.90;99.90
790;DHT22;378;48.844;9.156;2023-07-13T06:18:24;21.30;99.90
790;DHT22;378;48.844;9.156;2023-07-13T06:20:54;21.60;99.90
790;DHT22;378;48.844;9.156;2023-07-13T06:23:21;21.30;99.90
790;DHT22;378;48.844;9.156;2023-07-13T06:25:48;21.50;99.90
790;DHT22;378;48.844;9.156;2023-07-13T06:28:14;21.70;99.90
790;DHT22;378;48.844;9.156;2023-07-13T06:30:41;22.00;99.90
790;DHT22;378;48.844;9.156;2023-07-13T06:33:08;22.00;99.90
790;DHT22;378;48.844;9.156;2023-07-13T06:35:36;21.70;99.90
790;DHT22;378;48.844;9.156;2023-07-13T06:38:03;21.80;99.90
790;DHT22;378;48.844;9.156;2023-07-13T06:40:30;22.20;99.90
790;DHT22;378;48.844;9.156;2023-07-13T06:42:57;22.60;99.90
790;DHT22;378;48.844;9.156;2023-07-13T06:45:24;23.30;99.90
790;DHT22;378;48.844;9.156;2023-07-13T06:47:51;24.00;99.90
790;DHT22;378;48.844;9.156;2023-07-13T06:50:17;24.60;99.90
790;DHT22;378;48.844;9.156;2023-07-13T06:52:46;24.80;99.90
790;DHT22;378;48.844;9.156;2023-07-13T06:55:12;24.60;99.90
790;DHT22;378;48.844;9.156;2023-07-13T06:57:39;24.60;99.90
790;DHT22;378;48.844;9.156;2023-07-13T07:00:07;24.40;99.90
790;DHT22;378;48.844;9.156;2023-07-13T07:02:35;25.00;99.90
790;DHT22;378;48.844;9.156;2023-07-13T07:05:02;25.00;99.90
790;DHT22;378;48.844;9.156;2023-07-13T07:07:29;24.90;99.90
790;DHT22;378;48.844;9.156;2023-07-13T07:09:57;25.00;99.90
790;DHT22;378;48.844;9.156;2023-07-13T07:12:29;25.30;99.90
790;DHT22;378;48.844;9.156;2023-07-13T07:14:57;25.90;99.90
790;DHT22;378;48.844;9.156;2023-07-13T07:17:24;26.40;99.90
790;DHT22;378;48.844;9.156;2023-07-13T07:19:51;26.80;99.90
790;DHT22;378;48.844;9.156;2023-07-13T07:22:19;27.20;99.90
790;DHT22;378;48.844;9.156;2023-07-13T07:24:46;27.30;99.90
790;DHT22;378;48.844;9.156;2023-07-13T07:27:14;28.00;98.30
790;DHT22;378;48.844;9.156;2023-07-13T07:29:41;28.00;97.00
790;DHT22;378;48.844;9.156;2023-07-13T07:32:08;28.50;96.30
790;DHT22;378;48.844;9.156;2023-07-13T07:34:35;28.90;96.90
790;DHT22;378;48.844;9.156;2023-07-13T07:37:02;29.20;95.80
790;DHT22;378;48.844;9.156;2023-07-13T07:39:29;29.70;93.60
790;DHT22;378;48.844;9.156;2023-07-13T07:41:56;29.50;94.20
790;DHT22;378;48.844;9.156;2023-07-13T07:44:24;29.10;94.60
790;DHT22;378;48.844;9.156;2023-07-13T07:46:52;29.30;94.40
790;DHT22;378;48.844;9.156;2023-07-13T07:49:19;30.30;93.70
790;DHT22;378;48.844;9.156;2023-07-13T07:51:46;30.80;92.60
790;DHT22;378;48.844;9.156;2023-07-13T07:54:13;31.10;92.20
790;DHT22;378;48.844;9.156;2023-07-13T07:56:40;31.30;90.80
790;DHT22;378;48.844;9.156;2023-07-13T07:59:07;30.60;90.40
790;DHT22;378;48.844;9.156;2023-07-13T08:01:35;30.30;90.40
790;DHT22;378;48.844;9.156;2023-07-13T08:04:02;30.10;90.80
790;DHT22;378;48.844;9.156;2023-07-13T08:06:29;30.70;90.80
790;DHT22;378;48.844;9.156;2023-07-13T08:08:56;31.20;89.10
790;DHT22;378;48.844;9.156;2023-07-13T08:11:22;31.40;88.20
790;DHT22;378;48.844;9.156;2023-07-13T08:13:49;31.60;86.90
790;DHT22;378;48.844;9.156;2023-07-13T08:16:16;31.70;86.80
790;DHT22;378;48.844;9.156;2023-07-13T08:18:44;31.90;85.70
790;DHT22;378;48.844;9.156;2023-07-13T08:21:11;31.60;84.40
790;DHT22;378;48.844;9.156;2023-07-13T08:23:38;30.80;84.80
790;DHT22;378;48.844;9.156;2023-07-13T08:26:05;31.60;85.10
790;DHT22;378;48.844;9.156;2023-07-13T08:28:34;31.30;85.50
790;DHT22;378;48.844;9.156;2023-07-13T08:31:01;30.80;85.00
790;DHT22;378;48.844;9.156;2023-07-13T08:33:28;31.20;84.90
790;DHT22;378;48.844;9.156;2023-07-13T08:35:56;31.20;85.40
790;DHT22;378;48.844;9.156;2023-07-13T08:38:23;31.30;85.00
790;DHT22;378;48.844;9.156;2023-07-13T08:40:52;31.00;83.70
790;DHT22;378;48.844;9.156;2023-07-13T08:43:25;31.70;81.80
790;DHT22;378;48.844;9.156;2023-07-13T08:45:54;31.90;82.70
790;DHT22;378;48.844;9.156;2023-07-13T08:48:26;32.30;82.20
790;DHT22;378;48.844;9.156;2023-07-13T08:50:59;32.90;79.00
790;DHT22;378;48.844;9.156;2023-07-13T08:53:33;32.70;80.20
790;DHT22;378;48.844;9.156;2023-07-13T08:56:01;32.50;80.20
790;DHT22;378;48.844;9.156;2023-07-13T08:58:29;32.80;79.00
790;DHT22;378;48.844;9.156;2023-07-13T09:01:01;32.80;77.90
790;DHT22;378;48.844;9.156;2023-07-13T09:03:36;32.50;78.90
790;DHT22;378;48.844;9.156;2023-07-13T09:06:06;32.00;80.20
790;DHT22;378;48.844;9.156;2023-07-13T09:08:45;32.70;78.70
790;DHT22;378;48.844;9.156;2023-07-13T09:11:27;32.70;78.70
790;DHT22;378;48.844;9.156;2023-07-13T09:14:03;32.70;76.40
790;DHT22;378;48.844;9.156;2023-07-13T09:16:33;32.60;78.60
790;DHT22;378;48.844;9.156;2023-07-13T09:19:04;31.50;78.50
790;DHT22;378;48.844;9.156;2023-07-13T09:21:36;31.80;80.70
790;DHT22;378;48.844;9.156;2023-07-13T09:24:27;32.70;79.10
790;DHT22;378;48.844;9.156;2023-07-13T09:26:55;33.40;79.00
790;DHT22;378;48.844;9.156;2023-07-13T09:29:27;33.10;77.90
790;DHT22;378;48.844;9.156;2023-07-13T09:31:58;32.70;77.30
790;DHT22;378;48.844;9.156;2023-07-13T09:34:28;32.30;77.80
790;DHT22;378;48.844;9.156;2023-07-13T09:36:57;32.20;77.70
790;DHT22;378;48.844;9.156;2023-07-13T09:39:27;31.80;77.90
790;DHT22;378;48.844;9.156;2023-07-13T09:41:59;32.60;77.20
790;DHT22;378;48.844;9.156;2023-07-13T09:44:29;32.90;77.10
790;DHT22;378;48.844;9.156;2023-07-13T09:46:58;33.50;75.50
790;DHT22;378;48.844;9.156;2023-07-13T09:49:25;33.50;76.60
790;DHT22;378;48.844;9.156;2023-07-13T09:51:59;33.60;76.90
790;DHT22;378;48.844;9.156;2023-07-13T09:54:27;32.80;74.40
790;DHT22;378;48.844;9.156;2023-07-13T09:56:55;32.20;75.70
790;DHT22;378;48.844;9.156;2023-07-13T09:59:24;32.20;76.40
790;DHT22;378;48.844;9.156;2023-07-13T10:01:51;32.90;76.40
790;DHT22;378;48.844;9.156;2023-07-13T10:04:19;33.20;74.70
790;DHT22;378;48.844;9.156;2023-07-13T10:06:46;32.90;77.30
790;DHT22;378;48.844;9.156;2023-07-13T10:09:17;33.20;77.70
790;DHT22;378;48.844;9.156;2023-07-13T10:11:45;34.10;74.70
790;DHT22;378;48.844;9.156;2023-07-13T10:14:15;34.40;74.80
790;DHT22;378;48.844;9.156;2023-07-13T10:16:43;33.90;72.60
790;DHT22;378;48.844;9.156;2023-07-13T10:19:14;32.90;73.80
790;DHT22;378;48.844;9.156;2023-07-13T10:21:47;32.30;74.80
790;DHT22;378;48.844;9.156;2023-07-13T10:24:21;32.50;76.30
790;DHT22;378;48.844;9.156;2023-07-13T10:26:54;31.90;75.60
790;DHT22;378;48.844;9.156;2023-07-13T10:29:24;31.30;78.30
790;DHT22;378;48.844;9.156;2023-07-13T10:31:52;31.00;77.20
790;DHT22;378;48.844;9.156;2023-07-13T10:34:19;30.90;77.80
790;DHT22;378;48.844;9.156;2023-07-13T10:36:48;30.80;76.70
790;DHT22;378;48.844;9.156;2023-07-13T10:39:18;31.00;78.10
790;DHT22;378;48.844;9.156;2023-07-13T10:41:49;31.00;76.20
790;DHT22;378;48.844;9.156;2023-07-13T10:44:21;30.80;76.90
790;DHT22;378;48.844;9.156;2023-07-13T10:46:53;31.20;79.70
790;DHT22;378;48.844;9.156;2023-07-13T10:49:21;31.30;79.50
790;DHT22;378;48.844;9.156;2023-07-13T10:51:48;31.20;77.80
790;DHT22;378;48.844;9.156;2023-07-13T10:54:20;31.60;76.40
790;DHT22;378;48.844;9.156;2023-07-13T10:56:52;31.60;77.80
790;DHT22;378;48.844;9.156;2023-07-13T10:59:25;31.80;76.60
790;DHT22;378;48.844;9.156;2023-07-13T11:01:56;32.30;76.90
790;DHT22;378;48.844;9.156;2023-07-13T11:04:25;33.30;74.80
790;DHT22;378;48.844;9.156;2023-07-13T11:06:57;34.70;72.10
790;DHT22;378;48.844;9.156;2023-07-13T11:09:35;35.20;71.30
790;DHT22;378;48.844;9.156;2023-07-13T11:12:08;35.30;69.70
790;DHT22;378;48.844;9.156;2023-07-13T11:14:43;34.80;70.00
790;DHT22;378;48.844;9.156;2023-07-13T11:17:38;34.50;69.90
790;DHT22;378;48.844;9.156;2023-07-13T11:20:33;34.00;70.30
790;DHT22;378;48.844;9.156;2023-07-13T11:23:19;34.30;70.00
790;DHT22;378;48.844;9.156;2023-07-13T11:25:47;34.90;69.50
790;DHT22;378;48.844;9.156;2023-07-13T11:28:22;34.80;68.80
790;DHT22;378;48.844;9.156;2023-07-13T11:30:59;33.00;69.40
790;DHT22;378;48.844;9.156;2023-07-13T11:33:29;32.80;70.80
790;DHT22;378;48.844;9.156;2023-07-13T11:36:02;33.20;70.50
790;DHT22;378;48.844;9.156;2023-07-13T11:38:33;33.80;68.30
790;DHT22;378;48.844;9.156;2023-07-13T11:41:04;33.70;68.50
790;DHT22;378;48.844;9.156;2023-07-13T11:43:33;31.80;68.70
790;DHT22;378;48.844;9.156;2023-07-13T11:46:13;30.80;72.90
790;DHT22;378;48.844;9.156;2023-07-13T11:48:40;30.00;74.20
790;DHT22;378;48.844;9.156;2023-07-13T11:51:15;29.40;75.10
790;DHT22;378;48.844;9.156;2023-07-13T11:53:46;29.60;75.50
790;DHT22;378;48.844;9.156;2023-07-13T11:56:15;29.80;75.00
790;DHT22;378;48.844;9.156;2023-07-13T11:58:42;29.50;76.50
790;DHT22;378;48.844;9.156;2023-07-13T12:01:16;29.70;76.10
790;DHT22;378;48.844;9.156;2023-07-13T12:03:45;29.50;76.10
790;DHT22;378;48.844;9.156;2023-07-13T12:06:24;29.50;76.10
790;DHT22;378;48.844;9.156;2023-07-13T12:08:56;30.00;75.20
790;DHT22;378;48.844;9.156;2023-07-13T12:11:25;32.00;74.10
790;DHT22;378;48.844;9.156;2023-07-13T12:13:52;33.60;71.00
790;DHT22;378;48.844;9.156;2023-07-13T12:16:26;32.90;70.30
790;DHT22;378;48.844;9.156;2023-07-13T12:18:53;32.60;72.90
790;DHT22;378;48.844;9.156;2023-07-13T12:21:31;33.40;69.50
790;DHT22;378;48.844;9.156;2023-07-13T12:23:58;33.50;69.10
790;DHT22;378;48.844;9.156;2023-07-13T12:26:29;33.00;67.20
790;DHT22;378;48.844;9.156;2023-07-13T12:28:59;32.30;69.50
790;DHT22;378;48.844;9.156;2023-07-13T12:31:33;32.00;70.20
790;DHT22;378;48.844;9.156;2023-07-13T12:34:03;31.70;69.40
790;DHT22;378;48.844;9.156;2023-07-13T12:36:32;31.60;70.00
790;DHT22;378;48.844;9.156;2023-07-13T12:39:03;31.00;72.00
790;DHT22;378;48.844;9.156;2023-07-13T12:41:32;31.30;71.70
790;DHT22;378;48.844;9.156;2023-07-13T12:44:00;32.40;69.70
790;DHT22;378;48.844;9.156;2023-07-13T12:46:26;33.70;70.20
790;DHT22;378;48.844;9.156;2023-07-13T12:48:57;35.10;67.80
790;DHT22;378;48.844;9.156;2023-07-13T12:51:26;35.70;65.20
790;DHT22;378;48.844;9.156;2023-07-13T12:53:57;35.70;63.80
790;DHT22;378;48.844;9.156;2023-07-13T12:56:27;34.90;63.80
790;DHT22;378;48.844;9.156;2023-07-13T12:58:58;34.60;64.50
790;DHT22;378;48.844;9.156;2023-07-13T13:01:27;36.00;63.60
790;DHT22;378;48.844;9.156;2023-07-13T13:03:55;37.00;61.50
790;DHT22;378;48.844;9.156;2023-07-13T13:06:24;36.20;61.40
790;DHT22;378;48.844;9.156;2023-07-13T13:08:53;35.50;61.70
790;DHT22;378;48.844;9.156;2023-07-13T13:11:22;35.20;62.00
790;DHT22;378;48.844;9.156;2023-07-13T13:13:49;36.00;62.60
790;DHT22;378;48.844;9.156;2023-07-13T13:16:21;36.10;59.80
790;DHT22;378;48.844;9.156;2023-07-13T13:18:49;34.70;62.10
790;DHT22;378;48.844;9.156;2023-07-13T13:21:17;35.00;63.00
790;DHT22;378;48.844;9.156;2023-07-13T13:23:44;34.90;61.50
790;DHT22;378;48.844;9.156;2023-07-13T13:26:12;34.50;62.90
790;DHT22;378;48.844;9.156;2023-07-13T13:28:40;33.70;63.10
790;DHT22;378;48.844;9.156;2023-07-13T13:31:08;34.00;63.00
790;DHT22;378;48.844;9.156;2023-07-13T13:33:39;33.40;63.80
790;DHT22;378;48.844;9.156;2023-07-13T13:36:14;33.40;64.60
790;DHT22;378;48.844;9.156;2023-07-13T13:38:42;33.90;63.90
790;DHT22;378;48.844;9.156;2023-07-13T13:41:10;35.30;62.40
790;DHT22;378;48.844;9.156;2023-07-13T13:43:39;36.50;60.50
790;DHT22;378;48.844;9.156;2023-07-13T13:46:13;37.20;59.40
790;DHT22;378;48.844;9.156;2023-07-13T13:48:42;37.80;60.40
790;DHT22;378;48.844;9.156;2023-07-13T13:51:15;37.00;60.00
790;DHT22;378;48.844;9.156;2023-07-13T13:53:43;36.60;59.10
790;DHT22;378;48.844;9.156;2023-07-13T13:56:11;37.20;58.40
790;DHT22;378;48.844;9.156;2023-07-13T13:58:38;35.60;59.50
790;DHT22;378;48.844;9.156;2023-07-13T14:01:05;35.40;60.20
790;DHT22;378;48.844;9.156;2023-07-13T14:03:33;35.40;58.20
790;DHT22;378;48.844;9.156;2023-07-13T14:06:02;34.60;59.60
790;DHT22;378;48.844;9.156;2023-07-13T14:08:28;34.90;60.50
790;DHT22;378;48.844;9.156;2023-07-13T14:10:57;34.20;61.00
790;DHT22;378;48.844;9.156;2023-07-13T14:13:36;35.00;60.10
790;DHT22;378;48.844;9.156;2023-07-13T14:16:10;35.80;59.30
790;DHT22;378;48.844;9.156;2023-07-13T14:18:38;36.00;58.10
790;DHT22;378;48.844;9.156;2023-07-13T14:21:11;36.30;59.10
790;DHT22;378;48.844;9.156;2023-07-13T14:23:39;36.80;58.70
790;DHT22;378;48.844;9.156;2023-07-13T14:26:10;37.00;57.90
790;DHT22;378;48.844;9.156;2023-07-13T14:28:41;36.20;57.20
790;DHT22;378;48.844;9.156;2023-07-13T14:31:08;35.90;57.10
790;DHT22;378;48.844;9.156;2023-07-13T14:33:35;36.30;56.70
790;DHT22;378;48.844;9.156;2023-07-13T14:36:03;36.30;57.50
790;DHT22;378;48.844;9.156;2023-07-13T14:38:31;36.60;57.30
790;DHT22;378;48.844;9.156;2023-07-13T14:40:58;36.80;57.30
790;DHT22;378;48.844;9.156;2023-07-13T14:43:24;36.70;57.40
790;DHT22;378;48.844;9.156;2023-07-13T14:45:53;36.80;57.80
790;DHT22;378;48.844;9.156;2023-07-13T14:48:23;36.80;57.60
790;DHT22;378;48.844;9.156;2023-07-13T14:50:53;36.80;58.50
790;DHT22;378;48.844;9.156;2023-07-13T14:53:21;37.10;58.70
790;DHT22;378;48.844;9.156;2023-07-13T14:55:49;36.90;57.20
790;DHT22;378;48.844;9.156;2023-07-13T14:58:16;36.20;58.90
790;DHT22;378;48.844;9.156;2023-07-13T15:00:43;35.90;58.10
790;DHT22;378;48.844;9.156;2023-07-13T15:03:17;36.30;58.10
790;DHT22;378;48.844;9.156;2023-07-13T15:05:47;36.90;58.00
790;DHT22;378;48.844;9.156;2023-07-13T15:08:15;36.50;58.40
790;DHT22;378;48.844;9.156;2023-07-13T15:10:42;35.90;58.60
790;DHT22;378;48.844;9.156;2023-07-13T15:13:18;35.50;58.90
790;DHT22;378;48.844;9.156;2023-07-13T15:15:48;34.90;60.80
790;DHT22;378;48.844;9.156;2023-07-13T15:18:16;34.90;59.40
790;DHT22;378;48.844;9.156;2023-07-13T15:20:45;35.00;59.20
790;DHT22;378;48.844;9.156;2023-07-13T15:23:14;35.00;59.20
790;DHT22;378;48.844;9.156;2023-07-13T15:25:42;35.20;59.10
790;DHT22;378;48.844;9.156;2023-07-13T15:28:10;35.20;59.60
790;DHT22;378;48.844;9.156;2023-07-13T15:30:41;35.50;58.70
790;DHT22;378;48.844;9.156;2023-07-13T15:33:12;35.60;58.70
790;DHT22;378;48.844;9.156;2023-07-13T15:35:39;35.10;59.10
790;DHT22;378;48.844;9.156;2023-07-13T15:38:14;33.50;59.30
790;DHT22;378;48.844;9.156;2023-07-13T15:40:41;32.50;61.70
790;DHT22;378;48.844;9.156;2023-07-13T15:43:11;32.40;62.40
790;DHT22;378;48.844;9.156;2023-07-13T15:45:39;32.80;63.30
790;DHT22;378;48.844;9.156;2023-07-13T15:48:13;33.20;62.60
790;DHT22;378;48.844;9.156;2023-07-13T15:50:44;33.10;62.20
790;DHT22;378;48.844;9.156;2023-07-13T15:53:11;33.80;61.80
790;DHT22;378;48.844;9.156;2023-07-13T15:55:39;33.80;60.60
790;DHT22;378;48.844;9.156;2023-07-13T15:58:10;34.10;60.90
790;DHT22;378;48.844;9.156;2023-07-13T16:00:37;34.10;60.70
790;DHT22;378;48.844;9.156;2023-07-13T16:03:06;34.30;59.50
790;DHT22;378;48.844;9.156;2023-07-13T16:05:34;34.20;59.90
790;DHT22;378;48.844;9.156;2023-07-13T16:08:01;34.10;61.20
790;DHT22;378;48.844;9.156;2023-07-13T16:10:31;33.80;61.40
790;DHT22;378;48.844;9.156;2023-07-13T16:12:59;33.90;60.30
790;DHT22;378;48.844;9.156;2023-07-13T16:15:26;33.70;60.60
790;DHT22;378;48.844;9.156;2023-07-13T16:17:53;33.80;60.70
790;DHT22;378;48.844;9.156;2023-07-13T16:20:21;33.80;60.00
790;DHT22;378;48.844;9.156;2023-07-13T16:22:51;34.20;60.40
790;DHT22;378;48.844;9.156;2023-07-13T16:25:21;33.60;60.50
790;DHT22;378;48.844;9.156;2023-07-13T16:27:50;33.60;60.20
790;DHT22;378;48.844;9.156;2023-07-13T16:30:19;32.70;60.00
790;DHT22;378;48.844;9.156;2023-07-13T16:32:48;30.90;62.80
790;DHT22;378;48.844;9.156;2023-07-13T16:35:17;29.50;65.90
790;DHT22;378;48.844;9.156;2023-07-13T16:37:46;28.50;68.20
790;DHT22;378;48.844;9.156;2023-07-13T16:40:22;27.80;68.60
790;DHT22;378;48.844;9.156;2023-07-13T16:42:50;27.40;70.00
790;DHT22;378;48.844;9.156;2023-07-13T16:45:18;27.20;70.70
790;DHT22;378;48.844;9.156;2023-07-13T16:47:46;27.00;71.60